Time;durP1;ratioP1;P1;durP2;ratioP2;P2;SDS_P1;SDS_P2;PMS_P1;PMS_P2;Temp;Humidity;BMP_temperature;BMP_pressure;BME280_temperature;BME280_humidity;BME280_pressure;Samples;Min_cycle;Max_cycle;Signal;HPM_P1;HPM_P2
2022/10/04 00:01:51;;;;;;;7.80;5.90;;;;;;;9.60;90.85;100197.77;88797;1295;22074;-75
2022/10/04 00:04:05;;;;;;;6.30;5.70;;;;;;;9.61;90.88;100202.09;88602;1299;22060;-75
2022/10/04 00:06:19;;;;;;;5.50;5.00;;;;;;;9.62;91.12;100199.77;88567;1304;22597;-75
2022/10/04 00:08:30;;;;;;;6.60;5.30;;;;;;;9.63;91.05;100199.19;88696;1299;22687;-75
2022/10/04 00:10:36;;;;;;;7.20;6.50;;;;;;;9.65;91.21;100195.32;88484;1298;22173;-75
2022/10/04 00:12:47;;;;;;;10.90;5.70;;;;;;;9.65;91.31;100195.80;88715;1299;22103;-75
2022/10/04 00:14:53;;;;;;;8.20;5.80;;;;;;;9.66;91.40;100195.42;88828;1294;22659;-75
2022/10/04 00:16:59;;;;;;;7.60;5.00;;;;;;;9.67;91.43;100196.08;88695;1299;22097;-75
2022/10/04 00:19:25;;;;;;;9.80;8.80;;;;;;;9.68;91.39;100193.08;88485;1298;22095;-75
2022/10/04 00:22:21;;;;;;;8.70;6.80;;;;;;;9.69;91.59;100188.54;88776;1287;22096;-74
2022/10/04 00:24:28;;;;;;;12.30;7.00;;;;;;;9.69;91.70;100186.79;88720;1299;22586;-75
2022/10/04 00:27:17;;;;;;;8.70;4.90;;;;;;;9.69;91.49;100184.52;88607;1304;22090;-75
2022/10/04 00:29:33;;;;;;;5.90;5.10;;;;;;;9.69;91.60;100188.69;88837;1297;22040;-75
2022/10/04 00:31:44;;;;;;;5.70;3.60;;;;;;;9.70;91.68;100178.20;88577;1304;22107;-75
2022/10/04 00:33:51;;;;;;;5.90;4.80;;;;;;;9.72;91.66;100173.45;88602;1304;22077;-75
2022/10/04 00:35:57;;;;;;;7.30;4.60;;;;;;;9.73;91.55;100171.67;88505;1297;22096;-75
2022/10/04 00:38:07;;;;;;;8.10;4.50;;;;;;;9.71;91.59;100173.28;88689;1296;22083;-75
2022/10/04 00:40:15;;;;;;;11.10;4.50;;;;;;;9.71;91.62;100178.36;88463;1306;22171;-76
2022/10/04 00:42:44;;;;;;;5.10;4.20;;;;;;;9.71;91.68;100179.76;88710;1295;22271;-76
2022/10/04 00:44:52;;;;;;;5.50;4.20;;;;;;;9.70;91.90;100180.65;88781;1299;22692;-75
2022/10/04 00:47:00;;;;;;;5.90;4.30;;;;;;;9.70;91.89;100177.69;88590;1304;22077;-76
2022/10/04 00:49:06;;;;;;;6.80;4.10;;;;;;;9.70;92.01;100178.38;88464;1306;22089;-75
2022/10/04 00:51:17;;;;;;;5.70;3.70;;;;;;;9.69;91.93;100173.57;88471;1306;22290;-75
2022/10/04 00:53:37;;;;;;;9.50;4.60;;;;;;;9.68;92.05;100174.64;88786;1281;22031;-75
2022/10/04 00:55:46;;;;;;;7.50;4.50;;;;;;;9.68;92.17;100173.95;88532;1306;22041;-75
2022/10/04 00:57:52;;;;;;;6.00;3.70;;;;;;;9.69;92.28;100172.68;88785;1298;22056;-75
2022/10/04 01:00:00;;;;;;;6.10;3.80;;;;;;;9.70;92.37;100175.93;88836;1299;22619;-75
2022/10/04 01:02:07;;;;;;;3.90;3.10;;;;;;;9.71;92.47;100175.05;88837;1287;22525;-75
2022/10/04 01:04:25;;;;;;;5.30;3.40;;;;;;;9.71;92.36;100172.07;88520;1281;22059;-75
2022/10/04 01:06:31;;;;;;;7.70;4.20;;;;;;;9.70;92.10;100170.73;88532;1306;22032;-75
2022/10/04 01:08:40;;;;;;;13.70;4.70;;;;;;;9.69;91.99;100170.77;88816;1287;22112;-75
2022/10/04 01:10:47;;;;;;;7.50;4.40;;;;;;;9.67;92.00;100173.80;88766;1285;22065;-75
2022/10/04 01:12:55;;;;;;;9.80;4.60;;;;;;;9.66;92.04;100164.63;88791;1287;22022;-75
2022/10/04 01:15:06;;;;;;;6.90;3.90;;;;;;;9.64;91.92;100167.13;88488;1306;22595;-75
2022/10/04 01:17:12;;;;;;;7.00;3.60;;;;;;;9.61;91.86;100161.85;88748;1299;22695;-75
2022/10/04 01:19:31;;;;;;;9.70;3.70;;;;;;;9.56;91.71;100158.52;88505;1306;22044;-75
2022/10/04 01:21:38;;;;;;;7.20;3.20;;;;;;;9.50;91.54;100162.58;88499;1306;22092;-75
2022/10/04 01:23:45;;;;;;;9.50;5.00;;;;;;;9.44;91.40;100163.86;88495;1306;22654;-75
2022/10/04 01:25:52;;;;;;;5.80;3.40;;;;;;;9.39;91.53;100160.23;88496;1297;22097;-75
2022/10/04 01:27:57;;;;;;;4.80;3.00;;;;;;;9.33;91.54;100163.55;88775;1284;22048;-75
2022/10/04 01:30:04;;;;;;;9.90;3.80;;;;;;;9.28;91.50;100167.73;88704;1299;22079;-75
2022/10/04 01:32:10;;;;;;;9.10;4.30;;;;;;;9.24;91.66;100165.61;88780;1287;22112;-75
2022/10/04 01:34:21;;;;;;;7.30;3.60;;;;;;;9.20;91.65;100164.37;88851;1288;22062;-75
2022/10/04 01:36:27;;;;;;;4.60;3.40;;;;;;;9.17;91.84;100160.82;88838;1287;22052;-75
2022/10/04 01:38:33;;;;;;;10.90;4.30;;;;;;;9.15;91.94;100157.08;88783;1293;21989;-75
2022/10/04 01:40:43;;;;;;;7.20;3.80;;;;;;;9.14;92.04;100161.80;88756;1278;22095;-75
2022/10/04 01:42:50;;;;;;;8.50;3.80;;;;;;;9.14;92.28;100163.73;88775;1281;22061;-75
2022/10/04 01:44:59;;;;;;;5.50;3.90;;;;;;;9.14;92.24;100171.71;88517;1292;22061;-75
2022/10/04 01:47:12;;;;;;;10.30;3.50;;;;;;;9.15;92.33;100170.48;88788;1294;22101;-75
2022/10/04 01:49:21;;;;;;;8.90;3.70;;;;;;;9.16;92.49;100172.70;88512;1291;22067;-75
2022/10/04 01:51:29;;;;;;;6.00;3.60;;;;;;;9.18;92.60;100176.81;88776;1284;22491;-75
2022/10/04 01:53:39;;;;;;;4.50;3.10;;;;;;;9.19;92.72;100177.98;88795;1287;22762;-75
2022/10/04 01:55:47;;;;;;;8.40;3.90;;;;;;;9.19;92.53;100176.60;88747;1284;22253;-75
2022/10/04 01:57:56;;;;;;;6.90;3.70;;;;;;;9.18;92.44;100178.02;88675;1285;22726;-75
2022/10/04 02:00:05;;;;;;;9.00;3.20;;;;;;;9.16;92.26;100178.80;88793;1287;22099;-75
2022/10/04 02:02:18;;;;;;;6.00;3.40;;;;;;;9.12;92.20;100177.70;88788;1293;22154;-75
2022/10/04 02:04:28;;;;;;;7.30;3.90;;;;;;;9.08;92.09;100179.24;88753;1287;22029;-75
2022/10/04 02:06:41;;;;;;;8.60;3.40;;;;;;;9.03;92.07;100181.66;88754;1299;22495;-75
2022/10/04 02:08:48;;;;;;;6.70;3.40;;;;;;;9.00;92.32;100183.52;88760;1299;22564;-75
2022/10/04 02:10:54;;;;;;;4.10;2.80;;;;;;;8.98;92.12;100183.05;88734;1294;22039;-75
2022/10/04 02:13:00;;;;;;;7.00;3.30;;;;;;;8.96;92.33;100186.42;88508;1306;22053;-75
2022/10/04 02:15:10;;;;;;;5.60;3.50;;;;;;;8.96;92.41;100184.34;88754;1286;22025;-75
2022/10/04 02:17:17;;;;;;;5.40;2.80;;;;;;;8.97;92.56;100184.85;88768;1299;22084;-75
2022/10/04 02:19:26;;;;;;;6.30;3.20;;;;;;;8.97;92.49;100181.17;88738;1299;22117;-75
2022/10/04 02:21:32;;;;;;;9.50;3.80;;;;;;;8.99;92.66;100180.23;88771;1299;21939;-75
2022/10/04 02:23:37;;;;;;;5.60;3.00;;;;;;;9.00;92.69;100179.86;88746;1289;22080;-76
2022/10/04 02:25:43;;;;;;;4.50;3.00;;;;;;;9.01;92.54;100178.80;88756;1299;22089;-76
2022/10/04 02:27:52;;;;;;;4.00;2.50;;;;;;;9.01;92.60;100187.48;88768;1299;22079;-75
2022/10/04 02:30:03;;;;;;;5.10;2.30;;;;;;;9.02;92.56;100185.04;88514;1305;22605;-75
2022/10/04 02:34:33;;;;;;;6.20;2.80;;;;;;;9.04;92.65;100184.05;88489;1306;22515;-75
2022/10/04 02:36:39;;;;;;;5.10;3.00;;;;;;;9.07;92.65;100184.01;88768;1299;22134;-75
2022/10/04 02:38:51;;;;;;;4.50;2.50;;;;;;;9.08;92.62;100183.29;88756;1284;22048;-75
2022/10/04 02:40:58;;;;;;;5.20;2.40;;;;;;;9.07;92.55;100182.58;88476;1298;22041;-75
2022/10/04 02:43:08;;;;;;;4.00;2.70;;;;;;;9.07;92.45;100184.15;88484;1298;22168;-75
2022/10/04 02:45:18;;;;;;;5.50;3.20;;;;;;;9.06;92.43;100189.59;88750;1299;22056;-75
2022/10/04 02:47:24;;;;;;;5.20;2.50;;;;;;;9.03;92.35;100184.62;88700;1299;22645;-75
2022/10/04 02:49:32;;;;;;;3.30;2.30;;;;;;;9.02;92.42;100186.23;88741;1299;22183;-75
2022/10/04 02:51:42;;;;;;;6.00;2.60;;;;;;;9.02;92.50;100186.75;88759;1298;22093;-75
2022/10/04 02:53:56;;;;;;;7.20;2.30;;;;;;;9.02;92.41;100189.38;88765;1290;22030;-75
2022/10/04 02:56:02;;;;;;;5.40;2.90;;;;;;;9.01;92.57;100189.05;88751;1294;22048;-75
2022/10/04 02:58:13;;;;;;;4.00;2.20;;;;;;;9.01;92.53;100189.75;88506;1298;22096;-75
2022/10/04 03:00:20;;;;;;;;;;;;;;;9.01;92.49;100191.48;88502;1306;22156;-75
2022/10/04 03:02:27;;;;;;;5.60;2.40;;;;;;;8.99;92.60;100188.25;88762;1294;22044;-75
2022/10/04 03:04:37;;;;;;;4.20;2.00;;;;;;;9.01;92.66;100185.05;88728;1285;22100;-75
2022/10/04 03:06:44;;;;;;;4.50;2.10;;;;;;;9.01;92.68;100187.31;88747;1299;22608;-75
2022/10/04 03:08:51;;;;;;;3.10;2.40;;;;;;;9.02;92.76;100189.23;88744;1278;22057;-75
2022/10/04 03:10:58;;;;;;;3.30;1.70;;;;;;;9.03;92.68;100187.95;88478;1305;22109;-75
2022/10/04 03:13:04;;;;;;;1.80;1.50;;;;;;;9.04;92.82;100185.98;88705;1299;22707;-75
2022/10/04 03:15:11;;;;;;;4.50;2.40;;;;;;;9.05;92.86;100185.08;88497;1297;22065;-75
2022/10/04 03:17:16;;;;;;;7.10;3.00;;;;;;;9.05;92.95;100189.41;88499;1305;22048;-75
2022/10/04 03:19:26;;;;;;;3.90;2.20;;;;;;;9.07;93.10;100192.17;88748;1281;22041;-75
2022/10/04 03:21:32;;;;;;;4.60;2.10;;;;;;;9.09;93.02;100192.80;88498;1306;22065;-75
2022/10/04 03:23:37;;;;;;;3.20;2.30;;;;;;;9.10;93.07;100190.14;88522;1298;22067;-75
2022/10/04 03:25:47;;;;;;;4.80;2.00;;;;;;;9.10;93.20;100188.38;88681;1294;22735;-75
2022/10/04 03:27:53;;;;;;;7.70;2.70;;;;;;;9.12;93.39;100189.91;88494;1290;22078;-75
2022/10/04 03:30:00;;;;;;;4.30;2.60;;;;;;;9.13;93.47;100188.64;88751;1298;22060;-75
2022/10/04 03:32:06;;;;;;;2.90;2.40;;;;;;;9.15;93.45;100195.52;88515;1306;22190;-75
2022/10/04 03:34:16;;;;;;;7.00;2.80;;;;;;;9.16;93.68;100196.02;88495;1298;22090;-75
2022/10/04 03:36:21;;;;;;;2.80;1.80;;;;;;;9.17;93.68;100195.29;88757;1284;22126;-75
2022/10/04 03:38:27;;;;;;;7.70;2.70;;;;;;;9.19;93.71;100198.89;88776;1294;22038;-75
2022/10/04 03:40:33;;;;;;;6.00;2.30;;;;;;;9.20;93.71;100202.48;88461;1306;22060;-75
2022/10/04 03:42:39;;;;;;;5.80;2.50;;;;;;;9.22;93.87;100202.63;88752;1299;22718;-75
2022/10/04 03:44:44;;;;;;;4.40;2.40;;;;;;;9.23;93.93;100202.71;88493;1306;22071;-75
2022/10/04 03:46:50;;;;;;;4.40;2.50;;;;;;;9.25;94.01;100203.67;88502;1306;22049;-75
2022/10/04 03:48:56;;;;;;;6.60;2.50;;;;;;;9.27;94.01;100202.42;88754;1293;22045;-75
2022/10/04 03:51:02;;;;;;;5.90;3.10;;;;;;;9.29;93.97;100200.77;88720;1287;22076;-75
2022/10/04 03:53:12;;;;;;;5.30;3.20;;;;;;;9.30;93.89;100198.46;88482;1303;22053;-75
2022/10/04 03:55:18;;;;;;;4.20;2.90;;;;;;;9.31;93.82;100200.55;88756;1288;22026;-75
2022/10/04 03:57:24;;;;;;;6.00;3.10;;;;;;;9.30;93.81;100208.41;88491;1298;22081;-75
2022/10/04 03:59:29;;;;;;;6.40;3.60;;;;;;;9.29;93.92;100206.51;88501;1306;22075;-75
2022/10/04 04:01:38;;;;;;;10.10;3.50;;;;;;;9.31;93.97;100212.20;88767;1281;22039;-75
2022/10/04 04:03:59;;;;;;;5.50;3.30;;;;;;;9.31;93.96;100211.67;88763;1297;22589;-75
2022/10/04 04:06:07;;;;;;;9.50;3.50;;;;;;;9.31;94.07;100209.77;88599;1287;22115;-76
2022/10/04 04:08:15;;;;;;;9.40;4.20;;;;;;;9.31;93.97;100208.71;88760;1299;22020;-76
2022/10/04 04:10:24;;;;;;;4.40;3.70;;;;;;;9.31;94.08;100207.68;88789;1285;22588;-76
2022/10/04 04:12:34;;;;;;;8.10;3.90;;;;;;;9.30;93.95;100201.95;88751;1294;22054;-75
2022/10/04 04:14:40;;;;;;;6.40;3.10;;;;;;;9.30;93.95;100206.84;88771;1283;22612;-75
2022/10/04 04:16:46;;;;;;;6.10;3.80;;;;;;;9.30;94.03;100209.97;88489;1305;22093;-75
2022/10/04 04:18:52;;;;;;;5.30;4.30;;;;;;;9.31;94.06;100212.04;88768;1299;22196;-75
2022/10/04 04:20:58;;;;;;;8.90;3.70;;;;;;;9.31;94.14;100215.85;88396;1301;22078;-75
2022/10/04 04:23:10;;;;;;;6.00;3.90;;;;;;;9.31;93.97;100214.83;88407;1307;22064;-75
2022/10/04 04:25:16;;;;;;;5.20;3.50;;;;;;;9.31;94.10;100213.95;88507;1306;22607;-75
2022/10/04 04:27:24;;;;;;;6.30;3.80;;;;;;;9.31;94.18;100217.42;88496;1303;22078;-75
2022/10/04 04:29:32;;;;;;;5.80;3.60;;;;;;;9.32;94.36;100218.12;88623;1294;22122;-74
2022/10/04 04:31:42;;;;;;;5.10;3.90;;;;;;;9.33;94.31;100224.17;88494;1306;22050;-74
2022/10/04 04:33:51;;;;;;;8.80;3.70;;;;;;;9.33;94.32;100228.33;88499;1306;22096;-75
2022/10/04 04:35:58;;;;;;;7.40;4.40;;;;;;;9.34;94.26;100226.56;88726;1294;22014;-75
2022/10/04 04:38:16;;;;;;;5.70;3.70;;;;;;;9.35;94.37;100234.70;88493;1306;22052;-75
2022/10/04 04:40:24;;;;;;;7.30;3.50;;;;;;;9.36;94.47;100243.00;88709;1287;22147;-75
2022/10/04 04:42:31;;;;;;;9.90;5.70;;;;;;;9.38;94.46;100240.00;88489;1306;22068;-74
2022/10/04 04:44:36;;;;;;;4.90;3.70;;;;;;;9.40;94.48;100229.64;88603;1300;22046;-74
2022/10/04 04:46:43;;;;;;;4.70;3.90;;;;;;;9.42;94.43;100231.31;88740;1287;22485;-74
2022/10/04 04:48:52;;;;;;;11.00;3.80;;;;;;;9.43;94.55;100234.05;88755;1283;22068;-75
2022/10/04 04:50:58;;;;;;;4.00;3.10;;;;;;;9.45;94.65;100235.20;88688;1299;22131;-75
2022/10/04 04:53:08;;;;;;;8.30;3.80;;;;;;;9.46;94.49;100235.02;88747;1299;22593;-75
2022/10/04 04:55:19;;;;;;;7.20;4.30;;;;;;;9.46;94.39;100236.56;88510;1298;22099;-75
2022/10/04 04:57:25;;;;;;;4.60;3.00;;;;;;;9.47;94.35;100237.40;88506;1292;22077;-75
2022/10/04 04:59:30;;;;;;;5.70;2.70;;;;;;;9.48;94.27;100242.95;88499;1305;22079;-75
2022/10/04 05:01:41;;;;;;;4.90;3.00;;;;;;;9.48;94.34;100242.92;88727;1299;22026;-75
2022/10/04 05:03:59;;;;;;;5.80;3.40;;;;;;;9.49;94.25;100248.98;88763;1299;22069;-76
2022/10/04 05:06:06;;;;;;;5.10;2.60;;;;;;;9.51;94.30;100254.32;88498;1298;22645;-74
2022/10/04 05:08:16;;;;;;;4.70;2.70;;;;;;;9.52;94.39;100257.95;88724;1299;22135;-74
2022/10/04 05:10:30;;;;;;;5.10;3.50;;;;;;;9.53;94.37;100261.39;88747;1297;22609;-74
2022/10/04 05:12:36;;;;;;;5.50;2.90;;;;;;;9.54;94.33;100261.70;88466;1293;398296;-74
2022/10/04 05:14:46;;;;;;;5.10;2.60;;;;;;;9.55;94.24;100269.87;88613;1287;22202;-74
2022/10/04 05:16:54;;;;;;;5.70;3.00;;;;;;;9.56;94.19;100269.48;88721;1299;22608;-74
2022/10/04 05:19:01;;;;;;;5.70;3.30;;;;;;;9.58;94.16;100270.27;88687;1299;22611;-74
2022/10/04 05:21:10;;;;;;;7.90;2.70;;;;;;;9.60;94.39;100271.60;88498;1301;22117;-74
2022/10/04 05:23:15;;;;;;;9.70;3.10;;;;;;;9.61;94.36;100267.20;88756;1297;22062;-75
2022/10/04 05:25:28;;;;;;;5.40;2.50;;;;;;;9.64;94.22;100277.55;88392;1307;22087;-75
2022/10/04 05:27:36;;;;;;;4.40;2.70;;;;;;;9.66;94.24;100279.23;88757;1299;22825;-75
2022/10/04 05:29:49;;;;;;;8.00;2.80;;;;;;;9.69;94.35;100279.95;88716;1281;22078;-75
2022/10/04 05:32:03;;;;;;;8.70;3.00;;;;;;;9.73;94.46;100284.20;88508;1306;22081;-75
2022/10/04 05:34:21;;;;;;;3.10;2.10;;;;;;;9.76;94.51;100288.09;88769;1294;22633;-75
2022/10/04 05:36:56;;;;;;;8.90;2.30;;;;;;;9.81;94.43;100293.66;88751;1284;22105;-75
2022/10/04 05:39:05;;;;;;;4.50;2.30;;;;;;;9.86;94.45;100296.45;88749;1299;22052;-75
2022/10/04 05:41:14;;;;;;;3.80;2.70;;;;;;;9.90;94.47;100298.91;88501;1306;22034;-75
2022/10/04 05:43:28;;;;;;;4.00;2.20;;;;;;;9.93;94.43;100302.10;88505;1298;22066;-75
2022/10/04 05:45:34;;;;;;;6.00;2.40;;;;;;;9.96;94.44;100305.84;88507;1294;22058;-75
2022/10/04 05:47:39;;;;;;;4.50;2.20;;;;;;;10.00;94.25;100310.91;88746;1284;22055;-75
2022/10/04 05:49:46;;;;;;;4.40;2.60;;;;;;;10.03;94.20;100309.77;88729;1299;22626;-75
2022/10/04 05:51:54;;;;;;;7.70;2.70;;;;;;;10.06;94.26;100313.84;88496;1300;22604;-76
2022/10/04 05:54:01;;;;;;;4.50;1.90;;;;;;;10.11;94.20;100321.17;88761;1277;22674;-75
2022/10/04 05:56:15;;;;;;;6.50;2.70;;;;;;;10.15;94.14;100323.27;88605;1302;22068;-75
2022/10/04 05:58:43;;;;;;;4.60;2.50;;;;;;;10.19;94.13;100328.35;88760;1294;22032;-75
2022/10/04 06:01:05;;;;;;;6.20;2.70;;;;;;;10.25;94.15;100324.85;88743;1287;22060;-75
2022/10/04 06:03:27;;;;;;;3.90;2.00;;;;;;;10.30;94.12;100328.83;88753;1299;22058;-75
2022/10/04 06:05:42;;;;;;;5.80;2.00;;;;;;;10.36;93.87;100329.70;88723;1299;22026;-75
2022/10/04 06:07:52;;;;;;;5.70;2.30;;;;;;;10.40;93.79;100332.84;88517;1306;22068;-75
2022/10/04 06:10:27;;;;;;;;;;;;;;;10.45;93.85;100334.02;88747;1288;22867;-75
2022/10/04 06:12:42;;;;;;;7.30;2.00;;;;;;;10.51;94.24;100331.86;88658;1299;22179;-75
2022/10/04 06:15:07;;;;;;;2.70;2.40;;;;;;;10.67;94.39;100327.09;87224;1299;1002443;-75
2022/10/04 06:17:31;;;;;;;3.10;2.00;;;;;;;10.81;94.35;100331.55;88508;1306;22727;-75
2022/10/04 06:20:03;;;;;;;4.70;1.80;;;;;;;10.90;93.69;100334.91;88724;1287;22060;-75
2022/10/04 06:22:16;;;;;;;4.00;1.70;;;;;;;10.94;93.26;100341.55;88746;1299;22027;-75
2022/10/04 06:24:24;;;;;;;4.10;2.20;;;;;;;10.96;92.99;100341.46;88509;1294;22062;-75
2022/10/04 06:26:34;;;;;;;2.50;1.60;;;;;;;10.97;92.63;100343.51;88791;1278;22685;-75
2022/10/04 06:28:42;;;;;;;4.40;2.60;;;;;;;10.99;92.31;100347.98;88770;1298;22015;-75
2022/10/04 06:31:04;;;;;;;4.70;2.20;;;;;;;10.99;92.32;100347.08;88503;1298;22128;-75
2022/10/04 06:33:33;;;;;;;5.50;2.30;;;;;;;11.01;91.95;100347.19;88758;1285;22034;-75
2022/10/04 06:36:23;;;;;;;6.30;2.40;;;;;;;11.01;91.89;100349.45;88502;1305;21976;-75
2022/10/04 06:38:54;;;;;;;4.30;2.10;;;;;;;11.00;91.77;100355.42;88721;1299;22141;-75
2022/10/04 06:41:40;;;;;;;4.00;1.80;;;;;;;11.02;91.77;100356.39;88724;1299;22038;-75
2022/10/04 06:44:03;;;;;;;4.30;2.30;;;;;;;11.04;91.65;100359.09;88733;1297;22023;-75
2022/10/04 06:46:14;;;;;;;2.30;2.10;;;;;;;11.07;91.50;100359.14;87974;1299;1002358;-75
2022/10/04 06:48:55;;;;;;;8.10;2.40;;;;;;;11.09;91.43;100364.67;88752;1299;22660;-75
2022/10/04 06:51:05;;;;;;;4.80;2.70;;;;;;;11.11;91.33;100369.28;88564;1299;22022;-75
2022/10/04 06:53:20;;;;;;;3.10;2.20;;;;;;;11.14;90.95;100370.62;88739;1299;22015;-75
2022/10/04 06:56:01;;;;;;;5.60;2.80;;;;;;;11.16;91.02;100375.74;88758;1294;22038;-75
2022/10/04 06:58:32;;;;;;;4.40;1.90;;;;;;;11.17;90.86;100377.27;88617;1299;22637;-75
2022/10/04 07:00:40;;;;;;;6.10;2.50;;;;;;;11.19;90.81;100383.14;88746;1277;22032;-76
2022/10/04 07:02:49;;;;;;;3.20;1.70;;;;;;;11.21;90.76;100387.23;88769;1294;22013;-76
2022/10/04 07:04:58;;;;;;;3.90;2.20;;;;;;;11.24;90.56;100388.02;88755;1287;22109;-75
2022/10/04 07:07:23;;;;;;;5.40;2.30;;;;;;;11.28;90.58;100382.73;88511;1298;22572;-75
2022/10/04 07:09:29;;;;;;;7.50;2.30;;;;;;;11.37;90.60;100392.34;88750;1292;22038;-76
2022/10/04 07:11:42;;;;;;;7.00;2.90;;;;;;;11.44;90.78;100394.84;88463;1298;22689;-76
2022/10/04 07:13:52;;;;;;;2.90;2.40;;;;;;;11.54;90.71;100395.69;88752;1299;22077;-76
2022/10/04 07:16:01;;;;;;;6.00;2.50;;;;;;;11.61;90.56;100397.48;88777;1294;22137;-76
2022/10/04 07:18:13;;;;;;;2.30;1.80;;;;;;;11.65;90.12;100401.50;88716;1288;22210;-75
2022/10/04 07:20:22;;;;;;;5.20;2.30;;;;;;;11.65;89.65;100403.06;88749;1283;22067;-75
2022/10/04 07:22:30;;;;;;;3.30;1.70;;;;;;;11.66;89.65;100409.84;88492;1298;22019;-76
2022/10/04 07:24:47;;;;;;;8.00;1.80;;;;;;;11.66;89.43;100412.27;88752;1299;22076;-76
2022/10/04 07:26:53;;;;;;;10.40;2.10;;;;;;;11.66;89.12;100419.81;88745;1299;22066;-76
2022/10/04 07:31:26;;;;;;;3.70;1.80;;;;;;;11.62;88.76;100423.96;88683;1287;22297;-76
2022/10/04 07:33:35;;;;;;;6.40;2.00;;;;;;;11.63;88.68;100430.41;88741;1299;22739;-75
2022/10/04 07:35:45;;;;;;;6.40;2.50;;;;;;;11.63;88.70;100428.46;88743;1293;22027;-74
2022/10/04 07:37:56;;;;;;;5.10;2.20;;;;;;;11.64;88.35;100431.41;88614;1299;22135;-74
2022/10/04 07:40:06;;;;;;;5.70;2.70;;;;;;;11.63;88.23;100433.55;88742;1298;22032;-75
2022/10/04 07:42:24;;;;;;;2.30;2.10;;;;;;;11.66;88.41;100437.11;88528;1299;22043;-75
2022/10/04 07:44:36;;;;;;;6.10;2.40;;;;;;;11.68;88.51;100442.98;88681;1299;22828;-75
2022/10/04 07:46:52;;;;;;;6.50;2.20;;;;;;;11.71;88.15;100443.55;88524;1306;22085;-75
2022/10/04 07:48:57;;;;;;;4.50;2.30;;;;;;;11.72;87.56;100449.08;88756;1299;22648;-75
2022/10/04 07:51:08;;;;;;;4.10;2.70;;;;;;;11.74;87.98;100449.71;88517;1306;22077;-75
2022/10/04 07:53:15;;;;;;;5.20;2.60;;;;;;;11.75;87.83;100448.42;88764;1299;22027;-75
2022/10/04 07:55:29;;;;;;;2.30;2.10;;;;;;;11.76;87.59;100451.55;88747;1299;22037;-76
2022/10/04 07:57:40;;;;;;;4.20;2.20;;;;;;;11.75;87.54;100456.45;88527;1306;22750;-76
2022/10/04 07:59:52;;;;;;;3.70;1.80;;;;;;;11.76;87.26;100458.36;88702;1290;22244;-76
2022/10/04 08:02:02;;;;;;;3.40;1.90;;;;;;;11.78;87.22;100456.89;88773;1288;22095;-76
2022/10/04 08:04:21;;;;;;;5.30;2.20;;;;;;;11.78;87.14;100461.91;88754;1299;22183;-75
2022/10/04 08:06:34;;;;;;;7.10;1.90;;;;;;;11.80;87.11;100465.53;88515;1306;22113;-75
2022/10/04 08:08:59;;;;;;;3.30;1.80;;;;;;;11.81;86.92;100462.71;88765;1278;22023;-75
2022/10/04 08:11:17;;;;;;;4.30;2.30;;;;;;;11.80;86.85;100460.44;88693;1299;22763;-76
2022/10/04 08:13:27;;;;;;;2.60;2.10;;;;;;;11.83;86.77;100458.80;88510;1303;22101;-73
2022/10/04 08:15:38;;;;;;;5.70;2.20;;;;;;;11.86;86.87;100463.02;88700;1283;22052;-74
2022/10/04 08:17:53;;;;;;;7.00;2.40;;;;;;;11.91;86.79;100464.23;88740;1299;22097;-74
2022/10/04 08:20:06;;;;;;;4.10;1.90;;;;;;;11.96;86.88;100457.18;88715;1299;22090;-75
2022/10/04 08:22:23;;;;;;;2.70;1.90;;;;;;;12.04;86.93;100464.39;88749;1299;22020;-76
2022/10/04 08:24:34;;;;;;;4.10;2.10;;;;;;;12.14;86.95;100455.02;88751;1298;22093;-76
2022/10/04 08:26:48;;;;;;;5.20;1.90;;;;;;;12.26;87.04;100457.86;88613;1299;22055;-76
2022/10/04 08:31:34;;;;;;;2.30;1.60;;;;;;;12.45;86.16;100461.23;88501;1305;22123;-78
2022/10/04 08:34:00;;;;;;;3.60;1.60;;;;;;;12.51;85.54;100454.48;88734;1290;22075;-77
2022/10/04 08:36:14;;;;;;;2.10;1.40;;;;;;;12.58;85.01;100457.63;88510;1306;22057;-77
2022/10/04 08:38:41;;;;;;;3.60;1.80;;;;;;;12.63;84.44;100467.20;88762;1297;22675;-77
2022/10/04 08:41:41;;;;;;;2.70;1.50;;;;;;;12.66;83.87;100468.84;88769;1287;22085;-77
2022/10/04 08:44:45;;;;;;;3.70;1.20;;;;;;;12.70;83.34;100470.61;88507;1299;22111;-77
2022/10/04 08:47:43;;;;;;;2.20;1.80;;;;;;;12.73;83.42;100475.02;88325;1308;22140;-76
2022/10/04 08:50:15;;;;;;;2.30;1.40;;;;;;;12.83;83.27;100469.12;88318;1301;22061;-76
2022/10/04 08:52:57;;;;;;;2.00;1.30;;;;;;;12.98;82.99;100476.31;88463;1306;22055;-76
2022/10/04 08:55:44;;;;;;;2.40;1.10;;;;;;;13.15;82.31;100475.17;88721;1287;22065;-76
2022/10/04 08:58:07;;;;;;;1.90;1.20;;;;;;;13.31;81.42;100480.55;88495;1306;22073;-77
2022/10/04 09:00:17;;;;;;;2.70;1.00;;;;;;;13.46;81.57;100484.39;88742;1299;22103;-77
2022/10/04 09:02:53;;;;;;;7.10;1.20;;;;;;;13.58;80.75;100481.91;88619;1290;22081;-77
2022/10/04 09:05:47;;;;;;;1.00;0.90;;;;;;;13.71;80.32;100486.66;88486;1306;22943;-77
2022/10/04 09:08:39;;;;;;;2.60;1.10;;;;;;;13.85;78.71;100487.93;88170;1306;22659;-77
2022/10/04 09:11:09;;;;;;;2.80;1.20;;;;;;;14.27;79.86;100482.48;88757;1297;22067;-77
2022/10/04 09:13:29;;;;;;;3.00;1.00;;;;;;;14.64;78.94;100485.82;88451;1290;22710;-77
2022/10/04 09:15:48;;;;;;;;;;;;;;;14.87;77.11;100486.88;88492;1306;22133;-77
2022/10/04 09:18:07;;;;;;;5.30;1.30;;;;;;;15.00;74.68;100491.30;88633;1302;22085;-77
2022/10/04 09:20:23;;;;;;;2.20;0.90;;;;;;;15.09;74.85;100490.29;88788;1293;22103;-77
2022/10/04 09:22:46;;;;;;;2.10;1.30;;;;;;;15.09;74.64;100498.37;88772;1287;22049;-77
2022/10/04 09:25:27;;;;;;;4.50;1.30;;;;;;;15.04;73.72;100500.91;88781;1290;22116;-77
2022/10/04 09:27:46;;;;;;;3.70;1.20;;;;;;;14.90;72.44;100505.66;88513;1306;22617;-78
2022/10/04 09:30:04;;;;;;;3.80;0.90;;;;;;;14.83;72.42;100506.60;88766;1294;22187;-78
2022/10/04 09:33:01;;;;;;;1.10;0.90;;;;;;;14.83;72.90;100508.38;88634;1292;22091;-78
2022/10/04 09:35:47;;;;;;;3.70;1.40;;;;;;;14.75;71.95;100506.67;88731;1299;22112;-78
2022/10/04 09:38:07;;;;;;;2.20;1.30;;;;;;;14.64;72.13;100509.20;88678;1289;22119;-78
2022/10/04 09:41:06;;;;;;;2.30;1.30;;;;;;;14.55;69.79;100520.69;88756;1291;22629;-77
2022/10/04 09:43:56;;;;;;;2.70;1.50;;;;;;;14.37;70.84;100522.13;88276;1304;22682;-77
2022/10/04 09:46:15;;;;;;;4.30;1.30;;;;;;;14.29;71.50;100526.05;88146;1304;22814;-77
2022/10/04 09:48:32;;;;;;;1.80;1.00;;;;;;;14.24;71.81;100525.78;88575;1293;22064;-77
2022/10/04 09:51:19;;;;;;;3.80;1.10;;;;;;;14.19;72.30;100529.02;88495;1306;22108;-77
2022/10/04 09:53:52;;;;;;;1.60;1.30;;;;;;;14.13;72.56;100528.11;88757;1286;22051;-77
2022/10/04 09:56:20;;;;;;;1.50;1.20;;;;;;;14.06;72.27;100531.46;88615;1300;22077;-78
2022/10/04 09:58:45;;;;;;;1.30;1.20;;;;;;;13.98;72.80;100534.46;88484;1306;22094;-77
2022/10/04 10:00:52;;;;;;;4.00;1.40;;;;;;;13.94;72.78;100533.80;88759;1284;22099;-77
2022/10/04 10:03:32;;;;;;;6.70;1.90;;;;;;;13.89;72.90;100533.65;88744;1288;22120;-77
2022/10/04 10:05:55;;;;;;;3.30;1.00;;;;;;;13.87;73.15;100536.38;88477;1305;22184;-77
2022/10/04 10:08:10;;;;;;;5.10;1.00;;;;;;;13.95;73.70;100536.01;88505;1298;22195;-77
2022/10/04 10:15:33;;;;;;;3.10;0.90;;;;;;;14.46;74.27;100532.77;88741;1299;22040;-77
2022/10/04 10:17:43;;;;;;;3.60;1.30;;;;;;;14.63;74.50;100539.09;88772;1284;21923;-73
2022/10/04 10:20:15;;;;;;;;;;;;;;;14.79;73.99;100538.42;88781;1292;22287;-74
2022/10/04 10:22:45;;;;;;;2.40;1.80;;;;;;;14.84;72.75;100542.69;88734;1294;22136;-74
2022/10/04 10:25:10;;;;;;;2.10;0.90;;;;;;;14.90;72.14;100545.93;88479;1306;22062;-74
2022/10/04 10:27:34;;;;;;;2.20;1.20;;;;;;;14.91;71.83;100543.56;88735;1298;22067;-74
2022/10/04 10:30:15;;;;;;;1.00;0.80;;;;;;;14.94;71.65;100542.91;88731;1299;22075;-72
2022/10/04 10:33:10;;;;;;;1.40;1.10;;;;;;;15.01;70.14;100549.75;88747;1297;22162;-72
2022/10/04 10:35:28;;;;;;;2.40;1.60;;;;;;;14.93;69.20;100553.50;88458;1306;22217;-73
2022/10/04 10:37:42;;;;;;;1.50;0.80;;;;;;;14.86;69.46;100553.71;88491;1297;22665;-77
2022/10/04 10:40:05;;;;;;;2.30;1.00;;;;;;;14.82;69.63;100559.89;88493;1306;22943;-76
2022/10/04 10:42:59;;;;;;;2.60;1.10;;;;;;;14.93;70.05;100559.61;88477;1306;22118;-77
2022/10/04 10:45:20;;;;;;;1.60;1.00;;;;;;;14.98;69.99;100567.28;88270;1301;22165;-77